Time;durP1;ratioP1;P1;durP2;ratioP2;P2;SDS_P1;SDS_P2;PMS_P1;PMS_P2;Temp;Humidity;BMP_temperature;BMP_pressure;BME280_temperature;BME280_humidity;BME280_pressure;Samples;Min_cycle;Max_cycle;Signal;HPM_P1;HPM_P2
2022/09/03 00:02:01;;;;;;;1.55;0.80;;;;;;;;;;7390289;19;20566;-76
2022/09/03 00:04:35;;;;;;;0.80;0.70;;;;;;;;;;7385697;19;20021;-76
2022/09/03 00:07:06;;;;;;;0.65;0.60;;;;;;;;;;7384258;19;20030;-76
2022/09/03 00:09:41;;;;;;;0.80;0.60;;;;;;;;;;7394486;19;20460;-76
2022/09/03 00:12:36;;;;;;;1.30;0.73;;;;;;;;;;7389075;19;20462;-77
2022/09/03 00:15:28;;;;;;;1.30;0.88;;;;;;;;;;7384624;19;20011;-76
2022/09/03 00:18:04;;;;;;;1.58;0.90;;;;;;;;;;7388036;19;20027;-76
2022/09/03 00:20:40;;;;;;;0.80;0.60;;;;;;;;;;7390309;19;20006;-76
2022/09/03 00:23:10;;;;;;;3.70;1.00;;;;;;;;;;7388812;19;20539;-76
2022/09/03 00:25:49;;;;;;;1.58;0.50;;;;;;;;;;7392413;19;20114;-76
2022/09/03 00:28:23;;;;;;;0.75;0.50;;;;;;;;;;7391041;19;20003;-77
2022/09/03 00:30:56;;;;;;;2.28;0.80;;;;;;;;;;7382042;19;20093;-76
2022/09/03 00:33:26;;;;;;;0.68;0.50;;;;;;;;;;7390897;19;20015;-76
2022/09/03 00:36:00;;;;;;;2.55;0.63;;;;;;;;;;7390652;19;20364;-76
2022/09/03 00:38:28;;;;;;;0.97;0.50;;;;;;;;;;7393370;19;20018;-76
2022/09/03 00:41:05;;;;;;;1.63;0.75;;;;;;;;;;7389209;19;19994;-77
2022/09/03 00:43:49;;;;;;;1.10;0.60;;;;;;;;;;7383463;19;20017;-77
2022/09/03 00:46:28;;;;;;;0.80;0.80;;;;;;;;;;7384009;19;20006;-76
2022/09/03 00:49:31;;;;;;;2.40;0.70;;;;;;;;;;7383303;19;20031;-77
2022/09/03 00:52:11;;;;;;;0.70;0.70;;;;;;;;;;7383855;19;20066;-75
2022/09/03 00:54:50;;;;;;;0.93;0.65;;;;;;;;;;7385401;19;20006;-76
2022/09/03 00:57:43;;;;;;;3.50;0.70;;;;;;;;;;7389495;19;20460;-76
2022/09/03 01:00:13;;;;;;;0.50;0.50;;;;;;;;;;7381642;19;20130;-76
2022/09/03 01:03:06;;;;;;;0.50;0.50;;;;;;;;;;7391923;19;20016;-76
2022/09/03 01:05:52;;;;;;;0.93;0.70;;;;;;;;;;7385551;19;20317;-76
2022/09/03 01:08:52;;;;;;;3.10;0.70;;;;;;;;;;7377282;19;20006;-76
2022/09/03 01:11:58;;;;;;;2.25;0.70;;;;;;;;;;7389046;19;20338;-76
2022/09/03 01:15:03;;;;;;;0.70;0.60;;;;;;;;;;7386596;19;20038;-76
2022/09/03 01:18:10;;;;;;;0.82;0.60;;;;;;;;;;7387019;19;20022;-76
2022/09/03 01:21:05;;;;;;;0.70;0.70;;;;;;;;;;7386280;19;20013;-76
2022/09/03 01:23:41;;;;;;;0.50;0.50;;;;;;;;;;7389457;19;20053;-76
2022/09/03 01:26:40;;;;;;;3.75;0.93;;;;;;;;;;7388841;19;20811;-76
2022/09/03 01:29:18;;;;;;;1.05;0.70;;;;;;;;;;7391774;19;20027;-76
2022/09/03 01:32:14;;;;;;;0.60;0.60;;;;;;;;;;7389845;19;20966;-76
2022/09/03 01:35:02;;;;;;;0.50;0.50;;;;;;;;;;7389667;19;20478;-76
2022/09/03 01:37:45;;;;;;;0.95;0.77;;;;;;;;;;7390065;19;20031;-76
2022/09/03 01:40:33;;;;;;;0.73;0.73;;;;;;;;;;7392384;19;20025;-76
2022/09/03 01:43:23;;;;;;;0.77;0.50;;;;;;;;;;7390495;19;20003;-76
2022/09/03 01:46:01;;;;;;;0.60;0.50;;;;;;;;;;7392700;19;20350;-76
2022/09/03 01:48:29;;;;;;;0.47;0.38;;;;;;;;;;7392703;19;20039;-76
2022/09/03 01:51:24;;;;;;;0.88;0.60;;;;;;;;;;7393065;19;20371;-76
2022/09/03 01:54:09;;;;;;;1.42;0.73;;;;;;;;;;7391482;19;20352;-76
2022/09/03 01:57:15;;;;;;;1.80;0.70;;;;;;;;;;7390286;19;20006;-77
2022/09/03 01:59:43;;;;;;;;;;;;;;;;;;7387997;19;20348;-76
2022/09/03 02:02:19;;;;;;;1.35;0.73;;;;;;;;;;7390181;19;19915;-76
2022/09/03 02:05:06;;;;;;;2.22;0.60;;;;;;;;;;7391430;19;20366;-76
2022/09/03 02:07:34;;;;;;;1.42;0.75;;;;;;;;;;7385218;19;20645;-76
2022/09/03 02:10:02;;;;;;;0.68;0.68;;;;;;;;;;7382219;19;20132;-76
2022/09/03 02:12:34;;;;;;;0.98;0.70;;;;;;;;;;7379544;19;20019;-76
2022/09/03 02:15:02;;;;;;;0.77;0.57;;;;;;;;;;7379937;19;20006;-76
2022/09/03 02:17:30;;;;;;;1.10;0.65;;;;;;;;;;7383538;19;20014;-76
2022/09/03 02:19:55;;;;;;;1.83;0.70;;;;;;;;;;7383936;19;20014;-76
2022/09/03 02:22:21;;;;;;;0.60;0.60;;;;;;;;;;7380200;19;20670;-76
2022/09/03 02:24:46;;;;;;;0.98;0.80;;;;;;;;;;7382516;19;20627;-76
2022/09/03 02:27:12;;;;;;;0.70;0.70;;;;;;;;;;7384002;19;20010;-77
2022/09/03 02:29:37;;;;;;;0.40;0.40;;;;;;;;;;7377845;19;20002;-76
2022/09/03 02:32:02;;;;;;;0.65;0.65;;;;;;;;;;7378602;19;20018;-76
2022/09/03 02:34:29;;;;;;;4.78;0.98;;;;;;;;;;7380611;19;20127;-76
2022/09/03 02:36:54;;;;;;;0.75;0.68;;;;;;;;;;7384349;19;20030;-76
2022/09/03 02:39:19;;;;;;;1.20;0.75;;;;;;;;;;7388512;19;20019;-77
2022/09/03 02:41:51;;;;;;;1.38;0.60;;;;;;;;;;7386459;19;20011;-76
2022/09/03 02:44:30;;;;;;;1.05;0.80;;;;;;;;;;7388390;19;20042;-75
2022/09/03 02:47:00;;;;;;;3.83;0.60;;;;;;;;;;7385739;19;20027;-76
2022/09/03 02:49:26;;;;;;;0.75;0.60;;;;;;;;;;7394383;19;20014;-76
2022/09/03 02:51:59;;;;;;;1.15;1.00;;;;;;;;;;7388564;19;20010;-77
2022/09/03 02:54:25;;;;;;;1.83;0.73;;;;;;;;;;7389220;19;20789;-76
2022/09/03 02:56:51;;;;;;;0.70;0.60;;;;;;;;;;7385289;19;20006;-77
2022/09/03 02:59:16;;;;;;;1.20;0.88;;;;;;;;;;7389341;19;20011;-75
2022/09/03 03:01:42;;;;;;;3.05;0.80;;;;;;;;;;7388325;19;20468;-76
2022/09/03 03:04:07;;;;;;;0.95;0.75;;;;;;;;;;7386767;19;20009;-76
2022/09/03 03:06:33;;;;;;;0.77;0.60;;;;;;;;;;7390833;19;20003;-76
2022/09/03 03:08:58;;;;;;;0.80;0.80;;;;;;;;;;7394194;19;20607;-76
2022/09/03 03:11:25;;;;;;;1.00;0.80;;;;;;;;;;7397317;19;20014;-76
2022/09/03 03:13:50;;;;;;;1.10;0.82;;;;;;;;;;7396730;19;20031;-76
2022/09/03 03:16:16;;;;;;;3.13;1.02;;;;;;;;;;7396631;19;20014;-75
2022/09/03 03:18:41;;;;;;;2.17;0.80;;;;;;;;;;7396189;19;19998;-76
2022/09/03 03:21:12;;;;;;;0.93;0.70;;;;;;;;;;7396084;19;20031;-76
2022/09/03 03:23:38;;;;;;;1.42;0.70;;;;;;;;;;7397401;19;20035;-77
2022/09/03 03:26:06;;;;;;;0.63;0.60;;;;;;;;;;7395364;19;20432;-76
2022/09/03 03:28:32;;;;;;;0.60;0.60;;;;;;;;;;7393902;19;20002;-76
2022/09/03 03:31:04;;;;;;;0.63;0.60;;;;;;;;;;7394996;19;20437;-75
2022/09/03 03:33:29;;;;;;;1.52;0.85;;;;;;;;;;7389022;19;20352;-76
2022/09/03 03:35:54;;;;;;;2.22;0.85;;;;;;;;;;7392737;19;20014;-76
2022/09/03 03:38:20;;;;;;;1.05;0.70;;;;;;;;;;7387046;19;20030;-76
2022/09/03 03:40:45;;;;;;;1.02;0.70;;;;;;;;;;7386884;19;20002;-76
2022/09/03 03:43:11;;;;;;;1.17;0.90;;;;;;;;;;7387126;19;20017;-76
2022/09/03 03:45:36;;;;;;;1.67;0.77;;;;;;;;;;7384867;19;20010;-76
2022/09/03 03:48:02;;;;;;;1.55;1.00;;;;;;;;;;7381824;19;20010;-75
2022/09/03 03:50:27;;;;;;;1.75;0.95;;;;;;;;;;7386846;19;20341;-75
2022/09/03 03:52:52;;;;;;;0.68;0.63;;;;;;;;;;7385184;19;20342;-76
2022/09/03 03:55:18;;;;;;;0.73;0.73;;;;;;;;;;7386718;19;20354;-76
2022/09/03 03:57:43;;;;;;;1.08;0.80;;;;;;;;;;7385634;19;20014;-77
2022/09/03 04:00:09;;;;;;;1.08;0.60;;;;;;;;;;7388265;19;20010;-76
2022/09/03 04:02:34;;;;;;;1.10;0.90;;;;;;;;;;7385128;19;20007;-76
2022/09/03 04:04:59;;;;;;;0.88;0.63;;;;;;;;;;7386299;19;20014;-76
2022/09/03 04:07:25;;;;;;;2.45;0.88;;;;;;;;;;7390393;19;20565;-76
2022/09/03 04:09:50;;;;;;;1.33;0.80;;;;;;;;;;7391870;19;20032;-76
2022/09/03 04:12:16;;;;;;;0.88;0.55;;;;;;;;;;7388855;19;20338;-75
2022/09/03 04:14:42;;;;;;;2.22;0.85;;;;;;;;;;7385691;19;20010;-75
2022/09/03 04:17:07;;;;;;;0.50;0.50;;;;;;;;;;7383840;19;20478;-76
2022/09/03 04:19:33;;;;;;;1.85;0.90;;;;;;;;;;7387004;19;20005;-76
2022/09/03 04:21:58;;;;;;;0.98;0.73;;;;;;;;;;7383635;19;20018;-75
2022/09/03 04:24:23;;;;;;;2.03;0.75;;;;;;;;;;7388080;19;20086;-76
2022/09/03 04:26:52;;;;;;;1.13;0.80;;;;;;;;;;7382442;19;20011;-76
2022/09/03 04:29:18;;;;;;;1.90;1.10;;;;;;;;;;7383620;19;20032;-76
2022/09/03 04:32:51;;;;;;;1.58;0.68;;;;;;;;;;7384682;19;20010;-76
2022/09/03 04:34:29;;;;;;;1.30;0.68;;;;;;;;;;7382474;19;20464;-77
2022/09/03 04:36:56;;;;;;;2.80;0.93;;;;;;;;;;7384294;19;20007;-75
2022/09/03 04:39:21;;;;;;;0.57;0.50;;;;;;;;;;7379417;19;21549;-76
2022/09/03 04:41:47;;;;;;;1.38;0.77;;;;;;;;;;7383085;19;20014;-77
2022/09/03 04:44:12;;;;;;;1.13;0.82;;;;;;;;;;7387821;19;20031;-76
2022/09/03 04:46:39;;;;;;;1.35;0.77;;;;;;;;;;7385459;19;20026;-76
2022/09/03 04:49:06;;;;;;;3.28;0.70;;;;;;;;;;7390449;19;20006;-77
2022/09/03 04:51:31;;;;;;;3.58;1.10;;;;;;;;;;7390128;19;20126;-78
2022/09/03 04:54:01;;;;;;;0.98;0.88;;;;;;;;;;7388000;19;20014;-77
2022/09/03 04:56:31;;;;;;;1.00;0.90;;;;;;;;;;7387264;19;20074;-77
2022/09/03 04:59:05;;;;;;;2.70;0.88;;;;;;;;;;7388677;19;20111;-76
2022/09/03 05:01:33;;;;;;;1.63;0.90;;;;;;;;;;7385159;19;20138;-77
2022/09/03 05:03:59;;;;;;;2.90;0.93;;;;;;;;;;7376272;19;20037;-77
2022/09/03 05:06:25;;;;;;;1.10;0.80;;;;;;;;;;7391401;19;20014;-77
2022/09/03 05:08:52;;;;;;;1.17;0.60;;;;;;;;;;7393506;19;20003;-78
2022/09/03 05:11:18;;;;;;;1.92;0.90;;;;;;;;;;7390586;19;20079;-77
2022/09/03 05:13:47;;;;;;;0.93;0.80;;;;;;;;;;7391712;19;20043;-76
2022/09/03 05:16:13;;;;;;;1.10;0.80;;;;;;;;;;7384738;19;20316;-77
2022/09/03 05:18:41;;;;;;;1.98;1.33;;;;;;;;;;7391769;19;20006;-78
2022/09/03 05:21:09;;;;;;;1.00;0.73;;;;;;;;;;7392752;19;20011;-79
2022/09/03 05:23:37;;;;;;;1.58;1.00;;;;;;;;;;7394314;19;20024;-79
2022/09/03 05:26:08;;;;;;;0.80;0.80;;;;;;;;;;7393251;19;20006;-79
2022/09/03 05:28:36;;;;;;;1.40;0.75;;;;;;;;;;7392753;19;20017;-79
2022/09/03 05:31:04;;;;;;;2.60;0.90;;;;;;;;;;7397206;19;20232;-79
2022/09/03 05:33:34;;;;;;;2.45;0.68;;;;;;;;;;7396257;19;20031;-78
2022/09/03 05:36:01;;;;;;;0.70;0.70;;;;;;;;;;7387892;19;21776;-79
2022/09/03 05:38:26;;;;;;;1.10;0.80;;;;;;;;;;7386934;19;20134;-78
2022/09/03 05:40:52;;;;;;;2.05;0.80;;;;;;;;;;7392936;19;20042;-78
2022/09/03 05:43:18;;;;;;;1.10;0.70;;;;;;;;;;7390945;19;20014;-80
2022/09/03 05:45:44;;;;;;;1.52;0.90;;;;;;;;;;7391040;19;20011;-78
2022/09/03 05:48:09;;;;;;;2.30;0.82;;;;;;;;;;7387604;19;20443;-78
2022/09/03 05:50:34;;;;;;;0.60;0.52;;;;;;;;;;7387098;19;20010;-78
2022/09/03 05:53:00;;;;;;;1.08;0.80;;;;;;;;;;7389514;19;20009;-79
2022/09/03 05:55:27;;;;;;;0.70;0.70;;;;;;;;;;7389433;19;20018;-79
2022/09/03 05:57:52;;;;;;;1.35;1.00;;;;;;;;;;7384588;19;20007;-79
2022/09/03 06:00:19;;;;;;;1.52;0.98;;;;;;;;;;7391504;19;20027;-78
2022/09/03 06:02:52;;;;;;;1.02;0.70;;;;;;;;;;7387888;19;20010;-78
2022/09/03 06:05:17;;;;;;;0.68;0.63;;;;;;;;;;7390026;19;20337;-79
2022/09/03 06:07:43;;;;;;;1.75;0.98;;;;;;;;;;7382250;19;20079;-79
2022/09/03 06:10:09;;;;;;;3.10;1.10;;;;;;;;;;7387639;19;20043;-78
2022/09/03 06:12:35;;;;;;;1.95;1.00;;;;;;;;;;7391656;19;20018;-77
2022/09/03 06:15:01;;;;;;;2.90;0.70;;;;;;;;;;7395966;19;20014;-79
2022/09/03 06:17:26;;;;;;;2.42;1.42;;;;;;;;;;7400901;19;20007;-78
2022/09/03 06:19:52;;;;;;;1.25;0.90;;;;;;;;;;7401081;19;20027;-76
2022/09/03 06:22:17;;;;;;;1.17;0.80;;;;;;;;;;7400767;19;20011;-78
2022/09/03 06:24:42;;;;;;;2.13;0.70;;;;;;;;;;7399326;19;20003;-78
2022/09/03 06:27:08;;;;;;;1.15;0.90;;;;;;;;;;7401564;19;20009;-78
2022/09/03 06:29:34;;;;;;;1.23;0.80;;;;;;;;;;7400259;19;19999;-79
2022/09/03 06:32:03;;;;;;;1.08;0.70;;;;;;;;;;7396992;19;20011;-77
2022/09/03 06:34:29;;;;;;;1.67;1.20;;;;;;;;;;7399627;19;20092;-78
2022/09/03 06:36:54;;;;;;;1.83;0.88;;;;;;;;;;7397244;19;20358;-77
2022/09/03 06:39:19;;;;;;;1.52;1.00;;;;;;;;;;7398560;19;20027;-77
2022/09/03 06:41:50;;;;;;;0.95;0.60;;;;;;;;;;7397268;19;20023;-78
2022/09/03 06:44:16;;;;;;;0.52;0.50;;;;;;;;;;7399548;19;20021;-78
2022/09/03 06:46:41;;;;;;;1.83;1.10;;;;;;;;;;7393739;19;20010;-77
2022/09/03 06:49:07;;;;;;;4.75;0.98;;;;;;;;;;7400866;19;19995;-77
2022/09/03 06:51:33;;;;;;;1.02;0.77;;;;;;;;;;7400825;19;20436;-77
2022/09/03 06:54:00;;;;;;;4.57;0.90;;;;;;;;;;7396324;19;20024;-78
2022/09/03 06:56:26;;;;;;;1.23;0.90;;;;;;;;;;7400152;19;20027;-78
2022/09/03 06:58:56;;;;;;;0.85;0.70;;;;;;;;;;7400255;19;20003;-78
2022/09/03 07:01:27;;;;;;;2.50;0.80;;;;;;;;;;7400001;19;20034;-79
2022/09/03 07:03:57;;;;;;;1.00;0.60;;;;;;;;;;7400909;19;20041;-80
2022/09/03 07:06:37;;;;;;;2.35;1.05;;;;;;;;;;7402672;19;20010;-78
2022/09/03 07:09:03;;;;;;;8.68;1.10;;;;;;;;;;7401979;19;20006;-78
2022/09/03 07:11:32;;;;;;;1.00;0.60;;;;;;;;;;7400150;19;20006;-78
2022/09/03 07:13:58;;;;;;;3.60;1.00;;;;;;;;;;7400502;19;20040;-79
2022/09/03 07:16:26;;;;;;;2.78;0.80;;;;;;;;;;7401001;19;20003;-78
2022/09/03 07:18:52;;;;;;;0.98;0.70;;;;;;;;;;7401360;19;20452;-78
2022/09/03 07:21:24;;;;;;;5.50;1.17;;;;;;;;;;7401123;19;20023;-78
2022/09/03 07:23:51;;;;;;;1.33;0.80;;;;;;;;;;7398135;19;20332;-77
2022/09/03 07:26:20;;;;;;;1.15;0.80;;;;;;;;;;7400171;19;20035;-77
2022/09/03 07:28:45;;;;;;;1.85;1.15;;;;;;;;;;7399039;19;20018;-77
2022/09/03 07:31:32;;;;;;;1.23;0.73;;;;;;;;;;7394748;19;20335;-77
2022/09/03 07:33:59;;;;;;;2.53;1.38;;;;;;;;;;7390048;19;20016;-77
2022/09/03 07:36:27;;;;;;;2.80;0.90;;;;;;;;;;7393488;19;20002;-77
2022/09/03 07:38:58;;;;;;;1.83;0.90;;;;;;;;;;7398650;19;20438;-78
2022/09/03 07:41:25;;;;;;;1.45;0.80;;;;;;;;;;7404676;19;20018;-78
2022/09/03 07:43:51;;;;;;;1.17;0.70;;;;;;;;;;7394372;19;20010;-78
2022/09/03 07:46:22;;;;;;;4.43;1.25;;;;;;;;;;7394405;19;20034;-76
2022/09/03 07:48:57;;;;;;;1.67;0.90;;;;;;;;;;7393459;19;20034;-77
2022/09/03 07:51:25;;;;;;;1.58;0.90;;;;;;;;;;7394550;19;20018;-77
2022/09/03 07:53:52;;;;;;;3.55;1.40;;;;;;;;;;7395923;19;20427;-77
2022/09/03 07:56:17;;;;;;;1.55;1.00;;;;;;;;;;7396075;19;20018;-77
2022/09/03 07:58:42;;;;;;;1.45;0.80;;;;;;;;;;7393127;19;20002;-76
2022/09/03 08:01:13;;;;;;;5.72;1.25;;;;;;;;;;7395007;19;20427;-77
2022/09/03 08:03:43;;;;;;;4.43;1.10;;;;;;;;;;7390749;19;20023;-77
2022/09/03 08:06:10;;;;;;;1.25;0.90;;;;;;;;;;7394808;19;20025;-78
2022/09/03 08:08:36;;;;;;;1.33;0.88;;;;;;;;;;7394394;19;20003;-76
2022/09/03 08:11:14;;;;;;;3.58;1.00;;;;;;;;;;7394594;19;20007;-77
2022/09/03 08:13:42;;;;;;;0.90;0.80;;;;;;;;;;7394665;19;20009;-76
2022/09/03 08:16:08;;;;;;;1.52;1.00;;;;;;;;;;7394747;19;20031;-79
2022/09/03 08:18:36;;;;;;;4.00;1.20;;;;;;;;;;7397539;19;19999;-78
2022/09/03 08:21:14;;;;;;;1.52;1.00;;;;;;;;;;7396204;19;20014;-78
2022/09/03 08:23:41;;;;;;;2.80;1.20;;;;;;;;;;7396683;19;20007;-78
2022/09/03 08:26:07;;;;;;;2.55;1.10;;;;;;;;;;7395062;19;20030;-78
2022/09/03 08:28:34;;;;;;;1.05;0.90;;;;;;;;;;7394714;19;20570;-79
2022/09/03 08:31:14;;;;;;;1.73;0.88;;;;;;;;;;7397484;19;20035;-76
2022/09/03 08:33:43;;;;;;;1.00;0.90;;;;;;;;;;7391649;19;20484;-76
2022/09/03 08:36:14;;;;;;;1.20;1.00;;;;;;;;;;7389811;19;20010;-78
2022/09/03 08:38:42;;;;;;;1.40;0.95;;;;;;;;;;7393088;19;20030;-77
2022/09/03 08:41:14;;;;;;;1.55;1.00;;;;;;;;;;7393108;19;20013;-77
2022/09/03 08:43:59;;;;;;;1.20;1.10;;;;;;;;;;7393711;19;20110;-77
2022/09/03 08:46:35;;;;;;;1.10;1.00;;;;;;;;;;7392499;19;20038;-77
2022/09/03 08:49:01;;;;;;;0.80;0.80;;;;;;;;;;7393459;19;20495;-77
2022/09/03 08:51:26;;;;;;;1.23;0.88;;;;;;;;;;7392919;19;20015;-77
2022/09/03 08:53:56;;;;;;;3.30;1.10;;;;;;;;;;7391725;19;20341;-77
2022/09/03 08:56:32;;;;;;;1.58;1.00;;;;;;;;;;7391613;19;20352;-77
2022/09/03 08:59:00;;;;;;;1.20;0.95;;;;;;;;;;7393056;19;20014;-77
2022/09/03 09:01:32;;;;;;;1.42;1.00;;;;;;;;;;7391703;19;20020;-78
2022/09/03 09:04:18;;;;;;;4.72;1.10;;;;;;;;;;7384187;19;20115;-78
2022/09/03 09:07:02;;;;;;;1.45;1.10;;;;;;;;;;7388061;19;20571;-77
2022/09/03 09:09:43;;;;;;;1.95;1.00;;;;;;;;;;7389925;19;20018;-77
2022/09/03 09:12:11;;;;;;;2.20;1.10;;;;;;;;;;7383319;19;21491;-78
2022/09/03 09:14:47;;;;;;;1.05;0.85;;;;;;;;;;7390367;19;20014;-77
2022/09/03 09:17:50;;;;;;;1.60;0.90;;;;;;;;;;7383605;19;20009;-77
2022/09/03 09:20:21;;;;;;;2.63;1.10;;;;;;;;;;7392352;19;20013;-78
2022/09/03 09:22:56;;;;;;;0.90;0.90;;;;;;;;;;7389080;19;20481;-78
2022/09/03 09:25:25;;;;;;;1.30;0.90;;;;;;;;;;7393203;19;20002;-77
2022/09/03 09:27:55;;;;;;;0.70;0.70;;;;;;;;;;7391407;19;20027;-79
2022/09/03 09:30:21;;;;;;;1.50;1.10;;;;;;;;;;7396091;19;20015;-78
2022/09/03 09:32:46;;;;;;;3.25;0.95;;;;;;;;;;7392741;19;20021;-78
2022/09/03 09:35:13;;;;;;;2.00;1.10;;;;;;;;;;7392235;19;20014;-79
2022/09/03 09:37:48;;;;;;;2.78;1.00;;;;;;;;;;7391257;19;20027;-79
2022/09/03 09:40:31;;;;;;;1.58;0.80;;;;;;;;;;7391723;19;20010;-78
2022/09/03 09:43:05;;;;;;;0.95;0.77;;;;;;;;;;7389522;19;20006;-79
2022/09/03 09:45:32;;;;;;;2.28;1.08;;;;;;;;;;7388852;19;20058;-78
2022/09/03 09:47:58;;;;;;;1.50;1.05;;;;;;;;;;7386742;19;20010;-78
2022/09/03 09:50:23;;;;;;;1.67;0.88;;;;;;;;;;7393912;19;20002;-78
2022/09/03 09:53:00;;;;;;;5.45;1.20;;;;;;;;;;7391106;19;20014;-78
2022/09/03 09:55:27;;;;;;;1.40;0.75;;;;;;;;;;7392404;19;20017;-78
2022/09/03 09:58:04;;;;;;;3.83;1.15;;;;;;;;;;7384482;19;20049;-78
2022/09/03 10:00:33;;;;;;;4.88;1.00;;;;;;;;;;7395684;19;20011;-78
2022/09/03 10:02:58;;;;;;;3.83;1.00;;;;;;;;;;7393183;19;20010;-78
2022/09/03 10:05:26;;;;;;;1.58;1.10;;;;;;;;;;7386911;19;20949;-78
2022/09/03 10:08:00;;;;;;;1.55;1.00;;;;;;;;;;7386274;19;20026;-78
2022/09/03 10:10:27;;;;;;;1.00;0.88;;;;;;;;;;7393310;19;20022;-78
2022/09/03 10:13:07;;;;;;;1.02;0.82;;;;;;;;;;7393327;19;20006;-78
2022/09/03 10:16:04;;;;;;;3.17;0.93;;;;;;;;;;7390455;19;20010;-77
2022/09/03 10:18:44;;;;;;;1.42;0.88;;;;;;;;;;7397232;19;20006;-78
2022/09/03 10:21:23;;;;;;;1.10;1.00;;;;;;;;;;7398845;19;20020;-79
2022/09/03 10:24:16;;;;;;;2.20;1.05;;;;;;;;;;7397341;19;20002;-78
2022/09/03 10:26:45;;;;;;;2.78;1.10;;;;;;;;;;7398727;19;20039;-78
2022/09/03 10:29:14;;;;;;;2.80;1.20;;;;;;;;;;7395379;19;20014;-79
2022/09/03 10:32:29;;;;;;;1.77;1.00;;;;;;;;;;7387623;19;21055;-79
2022/09/03 10:35:12;;;;;;;0.85;0.85;;;;;;;;;;7395356;19;20029;-79
2022/09/03 10:37:46;;;;;;;2.08;1.20;;;;;;;;;;7395699;19;20050;-79
2022/09/03 10:40:11;;;;;;;0.63;0.63;;;;;;;;;;7390382;19;20475;-80
2022/09/03 10:43:08;;;;;;;1.17;1.00;;;;;;;;;;7395577;19;20014;-78
2022/09/03 10:45:53;;;;;;;1.00;0.68;;;;;;;;;;7404872;19;20007;-78
2022/09/03 10:48:18;;;;;;;1.30;0.90;;;;;;;;;;7393653;19;20026;-80
2022/09/03 10:50:47;;;;;;;0.90;0.90;;;;;;;;;;7394925;19;20022;-79
2022/09/03 10:53:48;;;;;;;0.95;0.95;;;;;;;;;;7386960;19;20022;-79
2022/09/03 10:56:31;;;;;;;1.02;0.80;;;;;;;;;;7392613;19;20017;-79
2022/09/03 10:59:23;;;;;;;2.40;1.20;;;;;;;;;;7396132;19;20366;-79
2022/09/03 11:02:19;;;;;;;4.05;0.90;;;;;;;;;;7395018;19;20006;-79
2022/09/03 11:04:59;;;;;;;3.67;1.10;;;;;;;;;;7389167;19;20010;-79
2022/09/03 11:07:37;;;;;;;1.85;1.25;;;;;;;;;;7391126;19;20010;-78
2022/09/03 11:10:10;;;;;;;0.98;0.88;;;;;;;;;;7391718;19;20006;-78
2022/09/03 11:13:12;;;;;;;1.92;1.25;;;;;;;;;;7391027;19;20023;-78
2022/09/03 11:15:50;;;;;;;0.95;0.90;;;;;;;;;;7385505;19;20010;-78
2022/09/03 11:18:22;;;;;;;1.50;1.00;;;;;;;;;;7389294;19;20019;-77
2022/09/03 11:20:52;;;;;;;2.63;0.82;;;;;;;;;;7387964;19;20017;-78
2022/09/03 11:23:18;;;;;;;1.33;0.90;;;;;;;;;;7391173;19;20010;-78
2022/09/03 11:25:55;;;;;;;1.10;1.00;;;;;;;;;;7393306;19;20010;-77
2022/09/03 11:28:44;;;;;;;2.42;1.10;;;;;;;;;;7397631;19;19999;-78
2022/09/03 11:31:22;;;;;;;2.78;1.08;;;;;;;;;;7390367;19;20025;-78
2022/09/03 11:33:57;;;;;;;1.13;0.90;;;;;;;;;;7387413;19;20031;-78
2022/09/03 11:36:29;;;;;;;1.33;1.00;;;;;;;;;;7388318;19;20126;-78
2022/09/03 11:38:55;;;;;;;2.67;1.00;;;;;;;;;;7395322;19;20026;-77
2022/09/03 11:41:36;;;;;;;1.40;1.00;;;;;;;;;;7395291;19;20002;-77
2022/09/03 11:44:18;;;;;;;1.02;0.77;;;;;;;;;;7393784;19;20006;-78
2022/09/03 11:46:57;;;;;;;1.15;0.90;;;;;;;;;;7394934;19;20467;-78
2022/09/03 11:49:32;;;;;;;3.10;0.85;;;;;;;;;;7397669;19;20069;-79
2022/09/03 11:52:06;;;;;;;1.10;0.80;;;;;;;;;;7398296;19;20011;-78
2022/09/03 11:54:42;;;;;;;1.48;0.73;;;;;;;;;;7394399;19;20089;-80
2022/09/03 11:57:12;;;;;;;0.60;0.60;;;;;;;;;;7392661;19;20018;-78
2022/09/03 11:59:40;;;;;;;0.73;0.70;;;;;;;;;;7400425;19;20428;-79
2022/09/03 12:02:20;;;;;;;2.38;0.82;;;;;;;;;;7396311;19;20021;-77
2022/09/03 12:04:54;;;;;;;1.20;0.73;;;;;;;;;;7397703;19;20652;-78
2022/09/03 12:07:37;;;;;;;0.70;0.70;;;;;;;;;;7390018;19;20448;-77
2022/09/03 12:10:06;;;;;;;1.05;0.70;;;;;;;;;;7392361;19;20026;-77
2022/09/03 12:12:39;;;;;;;1.05;0.75;;;;;;;;;;7390448;19;20115;-77
2022/09/03 12:15:53;;;;;;;0.60;0.60;;;;;;;;;;7393016;19;21253;-77
2022/09/03 12:18:34;;;;;;;0.73;0.45;;;;;;;;;;7390891;19;20803;-77
2022/09/03 12:21:01;;;;;;;0.50;0.50;;;;;;;;;;7393991;19;20036;-77
2022/09/03 12:23:51;;;;;;;1.00;0.70;;;;;;;;;;7393281;19;20649;-77
2022/09/03 12:26:17;;;;;;;0.40;0.40;;;;;;;;;;7396135;19;20026;-77
2022/09/03 12:28:46;;;;;;;0.88;0.60;;;;;;;;;;7400378;19;20456;-77
2022/09/03 12:31:23;;;;;;;1.52;0.70;;;;;;;;;;7400605;19;20017;-77
2022/09/03 12:33:59;;;;;;;0.75;0.75;;;;;;;;;;7397801;19;20003;-77
2022/09/03 12:36:35;;;;;;;0.68;0.68;;;;;;;;;;7396334;19;20013;-80
2022/09/03 12:39:24;;;;;;;1.08;0.60;;;;;;;;;;7397015;19;20209;-77
2022/09/03 12:42:08;;;;;;;0.57;0.40;;;;;;;;;;7395354;19;20110;-78
2022/09/03 12:44:34;;;;;;;0.60;0.60;;;;;;;;;;7396138;19;20341;-80
2022/09/03 12:47:20;;;;;;;2.60;0.77;;;;;;;;;;7395793;19;20283;-80
2022/09/03 12:49:48;;;;;;;0.85;0.70;;;;;;;;;;7396184;19;20058;-77
2022/09/03 12:52:24;;;;;;;3.58;0.80;;;;;;;;;;7395940;19;20126;-77
2022/09/03 12:54:58;;;;;;;0.77;0.70;;;;;;;;;;7396261;19;20006;-77
2022/09/03 12:57:35;;;;;;;0.80;0.77;;;;;;;;;;7393127;19;20021;-77
2022/09/03 13:00:08;;;;;;;0.57;0.57;;;;;;;;;;7393098;19;20373;-77
2022/09/03 13:02:57;;;;;;;0.77;0.77;;;;;;;;;;7395967;19;20503;-79
2022/09/03 13:05:46;;;;;;;0.80;0.60;;;;;;;;;;7394748;19;20014;-79
2022/09/03 13:08:24;;;;;;;0.70;0.70;;;;;;;;;;7392796;19;20011;-80
2022/09/03 13:10:53;;;;;;;0.93;0.70;;;;;;;;;;7395992;19;20010;-77
2022/09/03 13:13:28;;;;;;;1.90;0.77;;;;;;;;;;7395988;19;20006;-79
2022/09/03 13:16:08;;;;;;;2.45;0.90;;;;;;;;;;7395623;19;20002;-78
2022/09/03 13:18:40;;;;;;;0.90;0.70;;;;;;;;;;7397942;19;20007;-79
2022/09/03 13:21:21;;;;;;;0.75;0.70;;;;;;;;;;7396297;19;20025;-79
2022/09/03 13:24:04;;;;;;;0.85;0.70;;;;;;;;;;7395498;19;20400;-79
2022/09/03 13:26:35;;;;;;;1.27;0.55;;;;;;;;;;7397117;19;20015;-79
2022/09/03 13:29:28;;;;;;;0.80;0.80;;;;;;;;;;7397299;19;20006;-79
2022/09/03 13:32:27;;;;;;;1.15;0.70;;;;;;;;;;7393855;19;20452;-79
2022/09/03 13:35:28;;;;;;;0.68;0.68;;;;;;;;;;7394673;19;20010;-79
2022/09/03 13:38:14;;;;;;;0.80;0.80;;;;;;;;;;7392465;19;20440;-79
2022/09/03 13:41:01;;;;;;;1.98;0.80;;;;;;;;;;7395077;19;19999;-79
2022/09/03 13:43:36;;;;;;;0.60;0.60;;;;;;;;;;7394329;19;20006;-79
2022/09/03 13:46:26;;;;;;;1.13;0.75;;;;;;;;;;7395005;19;20124;-79
2022/09/03 13:51:50;;;;;;;3.35;0.90;;;;;;;;;;7396446;19;20017;-79
2022/09/03 13:54:25;;;;;;;0.50;0.50;;;;;;;;;;7407209;19;20443;-79
2022/09/03 13:57:00;;;;;;;0.50;0.50;;;;;;;;;;7395679;19;20010;-79
2022/09/03 13:59:26;;;;;;;0.85;0.52;;;;;;;;;;7395042;19;20009;-79
2022/09/03 14:02:03;;;;;;;0.63;0.63;;;;;;;;;;7392913;19;20006;-79
2022/09/03 14:04:43;;;;;;;0.60;0.60;;;;;;;;;;7395744;19;20007;-80
2022/09/03 14:07:14;;;;;;;0.70;0.70;;;;;;;;;;7394690;19;20318;-79
2022/09/03 14:10:00;;;;;;;0.95;0.60;;;;;;;;;;7393863;19;20043;-79
2022/09/03 14:12:41;;;;;;;;;;;;;;;;;;7396538;19;20078;-78
2022/09/03 14:15:19;;;;;;;2.45;0.40;;;;;;;;;;7392622;19;19919;-77
2022/09/03 14:17:59;;;;;;;2.17;0.43;;;;;;;;;;7389152;19;20332;-77
2022/09/03 14:20:29;;;;;;;3.50;0.60;;;;;;;;;;7390144;19;20549;-78
2022/09/03 14:22:54;;;;;;;1.80;0.30;;;;;;;;;;7394659;19;20010;-78
2022/09/03 14:25:23;;;;;;;2.28;0.32;;;;;;;;;;7396292;19;20321;-80
2022/09/03 14:27:49;;;;;;;2.35;0.40;;;;;;;;;;7394813;19;20006;-78
2022/09/03 14:30:15;;;;;;;0.30;0.30;;;;;;;;;;7397630;19;20011;-78
2022/09/03 14:33:13;;;;;;;0.65;0.40;;;;;;;;;;7395964;19;20002;-78
2022/09/03 14:35:58;;;;;;;0.38;0.30;;;;;;;;;;7399422;19;20003;-78
2022/09/03 14:38:32;;;;;;;;;;;;;;;;;;7399605;19;20007;-77
2022/09/03 14:41:19;;;;;;;0.57;0.40;;;;;;;;;;7397442;19;19915;-77
2022/09/03 14:43:57;;;;;;;1.10;0.40;;;;;;;;;;7398924;19;20021;-77
2022/09/03 14:46:51;;;;;;;3.42;0.70;;;;;;;;;;7398262;19;20532;-77
2022/09/03 14:49:50;;;;;;;0.52;0.40;;;;;;;;;;7396296;19;20090;-77
2022/09/03 14:52:18;;;;;;;0.40;0.40;;;;;;;;;;7397435;19;20035;-77
2022/09/03 14:55:04;;;;;;;2.72;0.52;;;;;;;;;;7399434;19;20044;-77
2022/09/03 14:57:40;;;;;;;1.55;0.40;;;;;;;;;;7396041;19;20011;-77
2022/09/03 15:00:36;;;;;;;3.15;0.35;;;;;;;;;;7398605;19;20006;-77
2022/09/03 15:03:17;;;;;;;2.65;0.65;;;;;;;;;;7391487;19;20006;-77
2022/09/03 15:06:09;;;;;;;2.88;0.50;;;;;;;;;;7386083;19;20022;-77
2022/09/03 15:08:44;;;;;;;5.20;0.55;;;;;;;;;;7392472;19;20021;-76
2022/09/03 15:11:22;;;;;;;7.05;1.02;;;;;;;;;;7394442;19;20022;-77
2022/09/03 15:13:52;;;;;;;0.63;0.60;;;;;;;;;;7387197;19;20079;-77
2022/09/03 15:16:43;;;;;;;2.40;0.50;;;;;;;;;;7388276;19;20014;-77
2022/09/03 15:19:15;;;;;;;0.95;0.32;;;;;;;;;;7391190;19;20070;-78
2022/09/03 15:22:02;;;;;;;0.95;0.55;;;;;;;;;;7393127;19;20002;-78
2022/09/03 15:25:03;;;;;;;3.08;0.35;;;;;;;;;;7388861;19;20009;-77
2022/09/03 15:27:48;;;;;;;3.05;0.68;;;;;;;;;;7384693;19;20014;-77